Pennington Gap, VA

7:19 PM EST on February 01, 2015 (GMT -0500)
Harlan | Change Station
CLOSE
Current Station
Airport
Location: Harlan,
Elevation: 1552 ft
Nearby Weather Stations

Elev 1552 ft 36.86 °N, 83.36 °W | Updated 24 minutes ago

Rain
Rain
41 °F
Feels Like 38 °F
N
5
Wind Variable Wind from ENE

Today
High -- | Low -- °F
--% Chance of Precip.
Yesterday
High -- | Low -- °F
Precip. -- in
7:34 AM 5:57 PM
Waxing Gibbous, 96% visible
Pressure 29.76 in
Visibility 7.0 miles
Clouds Overcast 2300 ft
Windchill 38 °F
Dew Point 41 °F
Humidity 100%
Rainfall 0.00 in
Snow Depth Not available.
UV 0 out of 12
Pollen .40 out of 12
Air Quality Not available.
Flu Activity Not available.
METAR KI35 012355Z AUTO 07004KT 7SM OVC023 05/05 A2976 RMK AO1

More Conditions Fewer Conditions

Pressure 29.76 in
Visibility 7.0 miles
Clouds Overcast 2300 ft
Windchill 38 °F
Dew Point 41 °F
Humidity 100%
Rainfall 0.00 in
Snow Depth Not available.
UV 0 out of 12
Pollen .40 out of 12
Air Quality Not available.
Flu Activity Not available.
METAR KI35 012355Z AUTO 07004KT 7SM OVC023 05/05 A2976 RMK AO1

More Conditions Fewer Conditions

10-Day Weather Forecast

Almanac

Astronomy

Feb. 01, 2015 Rise Set
Actual Time
Civil Twilight
Nautical Twilight
Astronomical Twilight
Moon
Length of Visible Light
Length of Day
Tomorrow will be .
, % of the Moon is Illuminated

Today's Extremes

State Highs State Lows

Community

WunderPhotos

Upload Photos

1,792,619 photos uploaded!

WunderBlogs® & News

Nearby

Air Quality

  Air Quality AQ Index Pollutant
Not available.

Snow Depth

Station Depth Elevation

Earthquake Activity

City Distance Mag. Time & Date
Minimum magnitude displayed is 2.5.

Coastal Water Temperatures

Place Temperature

Nearby Weather Stations